RYR2CD LIRN-EPMO
Flight info
| Callsign | RYR2CD |
|---|---|
| Flight time | N/A |
| Altitude | 36000 |
| Route | BEDPI DCT MOLUX DCT RUPAX DCT XOLTA DCT KOPRY DCT XENAK DCT DESEN DCT ATMEV DCT VAGSA N871 OKENO Q277 GOGUS |
| Aircraft | B738/M-SDE3FGILRWY/SB1 |
Departure
| Time | 2026-05-04 18:10 |
|---|---|
| Airport | Naples International Airport (LIRN) |
Arrival
| Time | N/A |
|---|---|
| Airport | Warsaw Modlin Airport (EPMO) |
| Time | Latitude | Longitude | Altitude | Speed | Heading |
|---|---|---|---|---|---|
| 2026-05-04 17:47 | 40.87878 | 14.28343 | 289 ft | 0 kts | 187° |
| 2026-05-04 18:00 | 40.87887 | 14.28344 | 294 ft | 4 kts | 187° |
| 2026-05-04 18:01 | 40.87912 | 14.28349 | 290 ft | 2 kts | 187° |
| 2026-05-04 18:01 | 40.87934 | 14.28355 | 291 ft | 4 kts | 215° |
| 2026-05-04 18:01 | 40.87941 | 14.28376 | 297 ft | 4 kts | 277° |
| 2026-05-04 18:02 | 40.87939 | 14.28401 | 293 ft | 2 kts | 277° |
| 2026-05-04 18:03 | 40.87939 | 14.28399 | 287 ft | 1 kts | 277° |
| 2026-05-04 18:04 | 40.87941 | 14.28379 | 288 ft | 4 kts | 277° |
| 2026-05-04 18:04 | 40.87946 | 14.28321 | 288 ft | 8 kts | 276° |
| 2026-05-04 18:04 | 40.87978 | 14.28141 | 293 ft | 11 kts | 323° |
| 2026-05-04 18:05 | 40.88039 | 14.28179 | 293 ft | 12 kts | 57° |
| 2026-05-04 18:05 | 40.88065 | 14.28291 | 287 ft | 15 kts | 97° |
| 2026-05-04 18:05 | 40.88052 | 14.28429 | 285 ft | 15 kts | 97° |
| 2026-05-04 18:05 | 40.88039 | 14.28578 | 283 ft | 17 kts | 86° |
| 2026-05-04 18:06 | 40.88205 | 14.28882 | 276 ft | 24 kts | 52° |
| 2026-05-04 18:06 | 40.88307 | 14.29059 | 271 ft | 25 kts | 52° |
| 2026-05-04 18:06 | 40.88414 | 14.29243 | 267 ft | 25 kts | 53° |
| 2026-05-04 18:07 | 40.88515 | 14.29418 | 262 ft | 23 kts | 52° |
| 2026-05-04 18:07 | 40.88609 | 14.29582 | 257 ft | 22 kts | 53° |
| 2026-05-04 18:07 | 40.88700 | 14.29739 | 252 ft | 21 kts | 52° |
| 2026-05-04 18:07 | 40.88788 | 14.29891 | 248 ft | 20 kts | 52° |
| 2026-05-04 18:08 | 40.88869 | 14.30032 | 243 ft | 19 kts | 52° |
| 2026-05-04 18:08 | 40.88951 | 14.30173 | 238 ft | 20 kts | 52° |
| 2026-05-04 18:08 | 40.89037 | 14.30258 | 234 ft | 12 kts | 343° |
| 2026-05-04 18:08 | 40.89078 | 14.30227 | 234 ft | 6 kts | 328° |
| 2026-05-04 18:09 | 40.89096 | 14.30123 | 237 ft | 8 kts | 238° |
| 2026-05-04 18:09 | 40.88849 | 14.29600 | 252 ft | 90 kts | 238° |
| 2026-05-04 18:10 | 40.88400 | 14.28645 | 277 ft | 152 kts | 238° |
| 2026-05-04 18:10 | 40.87791 | 14.27354 | 786 ft | 167 kts | 239° |
| 2026-05-04 18:10 | 40.87087 | 14.26131 | 1665 ft | 171 kts | 220° |
| 2026-05-04 18:10 | 40.85952 | 14.25667 | 2372 ft | 181 kts | 181° |
| 2026-05-04 18:11 | 40.84662 | 14.25803 | 3124 ft | 187 kts | 172° |
| 2026-05-04 18:11 | 40.83378 | 14.26074 | 3989 ft | 189 kts | 171° |
| 2026-05-04 18:11 | 40.82095 | 14.26355 | 4842 ft | 190 kts | 171° |
| 2026-05-04 18:11 | 40.80717 | 14.26650 | 5179 ft | 214 kts | 171° |
| 2026-05-04 18:12 | 40.79145 | 14.26978 | 5427 ft | 236 kts | 171° |
| 2026-05-04 18:12 | 40.77484 | 14.27317 | 5741 ft | 257 kts | 172° |
| 2026-05-04 18:12 | 40.75665 | 14.27685 | 6314 ft | 270 kts | 172° |
| 2026-05-04 18:12 | 40.73850 | 14.28368 | 7135 ft | 274 kts | 150° |
| 2026-05-04 18:13 | 40.72452 | 14.30070 | 7993 ft | 279 kts | 123° |
| 2026-05-04 18:13 | 40.71799 | 14.32470 | 8788 ft | 285 kts | 95° |
| 2026-05-04 18:13 | 40.72393 | 14.37713 | 10390 ft | 295 kts | 77° |
| 2026-05-04 18:14 | 40.72843 | 14.40375 | 11119 ft | 300 kts | 76° |
| 2026-05-04 18:14 | 40.73634 | 14.42919 | 11832 ft | 303 kts | 52° |
| 2026-05-04 18:14 | 40.75246 | 14.44781 | 12163 ft | 321 kts | 28° |
| 2026-05-04 18:15 | 40.79486 | 14.47542 | 12910 ft | 353 kts | 24° |
| 2026-05-04 18:15 | 40.83885 | 14.50541 | 14430 ft | 359 kts | 26° |
| 2026-05-04 18:15 | 40.86092 | 14.52135 | 15096 ft | 363 kts | 26° |
| 2026-05-04 18:16 | 40.88324 | 14.53745 | 15751 ft | 367 kts | 26° |
| 2026-05-04 18:16 | 40.89844 | 14.54835 | 16205 ft | 370 kts | 26° |
| 2026-05-04 18:16 | 40.92121 | 14.56458 | 16863 ft | 374 kts | 25° |
| 2026-05-04 18:17 | 40.96761 | 14.59747 | 18204 ft | 382 kts | 25° |
| 2026-05-04 18:17 | 40.99114 | 14.61415 | 18783 ft | 386 kts | 25° |
| 2026-05-04 18:17 | 41.03888 | 14.64798 | 19964 ft | 392 kts | 25° |
| 2026-05-04 18:18 | 41.06273 | 14.66482 | 20516 ft | 395 kts | 24° |
| 2026-05-04 18:18 | 41.08746 | 14.68081 | 21056 ft | 397 kts | 21° |
| 2026-05-04 18:18 | 41.11291 | 14.69544 | 21612 ft | 400 kts | 19° |
| 2026-05-04 18:18 | 41.13887 | 14.70896 | 22136 ft | 403 kts | 18° |
| 2026-05-04 18:19 | 41.19146 | 14.73629 | 23186 ft | 410 kts | 19° |
| 2026-05-04 18:19 | 41.21793 | 14.75086 | 23687 ft | 414 kts | 20° |
| 2026-05-04 18:19 | 41.24451 | 14.76575 | 24125 ft | 416 kts | 20° |
| 2026-05-04 18:20 | 41.27108 | 14.78153 | 24602 ft | 419 kts | 22° |
| 2026-05-04 18:20 | 41.29719 | 14.79883 | 25070 ft | 421 kts | 24° |
| 2026-05-04 18:20 | 41.32328 | 14.81693 | 25509 ft | 423 kts | 23° |
| 2026-05-04 18:20 | 41.34950 | 14.83477 | 25919 ft | 424 kts | 22° |
| 2026-05-04 18:21 | 41.37593 | 14.85245 | 26323 ft | 426 kts | 21° |
| 2026-05-04 18:21 | 41.40257 | 14.87007 | 26727 ft | 428 kts | 21° |
| 2026-05-04 18:21 | 41.42932 | 14.88769 | 27126 ft | 430 kts | 21° |
| 2026-05-04 18:21 | 41.45618 | 14.90538 | 27506 ft | 432 kts | 21° |
| 2026-05-04 18:22 | 41.48319 | 14.92319 | 27885 ft | 434 kts | 20° |
| 2026-05-04 18:22 | 41.51026 | 14.94106 | 28283 ft | 435 kts | 20° |
| 2026-05-04 18:22 | 41.53746 | 14.95905 | 28643 ft | 437 kts | 20° |
| 2026-05-04 18:22 | 41.56478 | 14.97716 | 28999 ft | 440 kts | 20° |
| 2026-05-04 18:23 | 41.59225 | 14.99538 | 29362 ft | 442 kts | 20° |
| 2026-05-04 18:23 | 41.61983 | 15.01370 | 29716 ft | 444 kts | 20° |
| 2026-05-04 18:23 | 41.64751 | 15.03211 | 30059 ft | 445 kts | 20° |
| 2026-05-04 18:23 | 41.67524 | 15.05057 | 30367 ft | 446 kts | 20° |
| 2026-05-04 18:24 | 41.70299 | 15.06908 | 30720 ft | 446 kts | 20° |
| 2026-05-04 18:24 | 41.73067 | 15.08756 | 31121 ft | 444 kts | 20° |
| 2026-05-04 18:24 | 41.75827 | 15.10601 | 31517 ft | 442 kts | 20° |
| 2026-05-04 18:24 | 41.78577 | 15.12440 | 31892 ft | 442 kts | 20° |
| 2026-05-04 18:25 | 41.81324 | 15.14277 | 32255 ft | 441 kts | 20° |
| 2026-05-04 18:25 | 41.84066 | 15.16112 | 32620 ft | 440 kts | 20° |
| 2026-05-04 18:25 | 41.86796 | 15.17942 | 32985 ft | 439 kts | 20° |
| 2026-05-04 18:25 | 41.89493 | 15.19750 | 33336 ft | 438 kts | 20° |
| 2026-05-04 18:26 | 41.92215 | 15.21578 | 33690 ft | 437 kts | 20° |
| 2026-05-04 18:26 | 41.94931 | 15.23403 | 34037 ft | 436 kts | 20° |
| 2026-05-04 18:26 | 41.97639 | 15.25225 | 34343 ft | 435 kts | 20° |
| 2026-05-04 18:26 | 42.00350 | 15.27050 | 34627 ft | 435 kts | 20° |
| 2026-05-04 18:27 | 42.03051 | 15.28870 | 34902 ft | 434 kts | 20° |
| 2026-05-04 18:27 | 42.05749 | 15.30690 | 35172 ft | 433 kts | 20° |
| 2026-05-04 18:27 | 42.08440 | 15.32507 | 35443 ft | 433 kts | 20° |
| 2026-05-04 18:27 | 42.11121 | 15.34320 | 35716 ft | 432 kts | 20° |
| 2026-05-04 18:28 | 42.13807 | 15.36136 | 35969 ft | 431 kts | 20° |
| 2026-05-04 18:28 | 42.16491 | 15.37953 | 36080 ft | 434 kts | 20° |
| 2026-05-04 18:28 | 42.21915 | 15.41630 | 36075 ft | 437 kts | 20° |
| 2026-05-04 18:29 | 42.27311 | 15.45302 | 36071 ft | 431 kts | 21° |
| 2026-05-04 18:29 | 42.32650 | 15.48935 | 36087 ft | 429 kts | 21° |
| 2026-05-04 18:30 | 42.40645 | 15.54379 | 36085 ft | 429 kts | 21° |
| 2026-05-04 18:31 | 42.45969 | 15.58016 | 36084 ft | 429 kts | 21° |
| 2026-05-04 18:31 | 42.51301 | 15.61665 | 36088 ft | 430 kts | 21° |
| 2026-05-04 18:32 | 42.56662 | 15.65340 | 36105 ft | 435 kts | 21° |
| 2026-05-04 18:32 | 42.62129 | 15.69095 | 36106 ft | 445 kts | 22° |
| 2026-05-04 18:33 | 42.67694 | 15.72928 | 36104 ft | 453 kts | 22° |
| 2026-05-04 18:33 | 42.73482 | 15.76348 | 36098 ft | 454 kts | 13° |
| 2026-05-04 18:34 | 42.79581 | 15.78491 | 36097 ft | 452 kts | 7° |
| 2026-05-04 18:34 | 42.85735 | 15.80069 | 36096 ft | 454 kts | 7° |
| 2026-05-04 18:35 | 42.91968 | 15.81827 | 36098 ft | 455 kts | 8° |
| 2026-05-04 18:35 | 42.98111 | 15.83759 | 36099 ft | 456 kts | 9° |
| 2026-05-04 18:36 | 43.04320 | 15.85794 | 36099 ft | 456 kts | 9° |
| 2026-05-04 18:36 | 43.10484 | 15.87825 | 36100 ft | 455 kts | 10° |
| 2026-05-04 18:37 | 43.16642 | 15.89850 | 36098 ft | 455 kts | 10° |
| 2026-05-04 18:37 | 43.22754 | 15.91858 | 36100 ft | 454 kts | 10° |
| 2026-05-04 18:38 | 43.28904 | 15.93881 | 36101 ft | 454 kts | 10° |
| 2026-05-04 18:38 | 43.35043 | 15.95905 | 36103 ft | 454 kts | 10° |
| 2026-05-04 18:39 | 43.41193 | 15.97937 | 36102 ft | 455 kts | 10° |
| 2026-05-04 18:39 | 43.47345 | 15.99974 | 36104 ft | 455 kts | 10° |
| 2026-05-04 18:40 | 43.53501 | 16.02017 | 36111 ft | 455 kts | 10° |
| 2026-05-04 18:40 | 43.59663 | 16.04066 | 36105 ft | 456 kts | 10° |
| 2026-05-04 18:41 | 43.65826 | 16.06120 | 36108 ft | 456 kts | 10° |
| 2026-05-04 18:41 | 43.71996 | 16.08181 | 36107 ft | 456 kts | 10° |
| 2026-05-04 18:42 | 43.78164 | 16.10245 | 36113 ft | 456 kts | 10° |
| 2026-05-04 18:42 | 43.84332 | 16.12313 | 36097 ft | 456 kts | 10° |
| 2026-05-04 18:43 | 43.90110 | 16.14255 | 36122 ft | 456 kts | 11° |
| 2026-05-04 18:43 | 43.96275 | 16.16331 | 36108 ft | 456 kts | 11° |
| 2026-05-04 18:44 | 44.02441 | 16.18411 | 36126 ft | 456 kts | 11° |
| 2026-05-04 18:44 | 44.08600 | 16.20494 | 36106 ft | 455 kts | 11° |
| 2026-05-04 18:45 | 44.14757 | 16.22581 | 36108 ft | 456 kts | 11° |
| 2026-05-04 18:45 | 44.20906 | 16.24670 | 36116 ft | 455 kts | 11° |
| 2026-05-04 18:46 | 44.27062 | 16.26764 | 36128 ft | 456 kts | 11° |
| 2026-05-04 18:46 | 44.33234 | 16.28869 | 36122 ft | 457 kts | 11° |
| 2026-05-04 18:47 | 44.39419 | 16.30984 | 36113 ft | 458 kts | 11° |
| 2026-05-04 18:47 | 44.45604 | 16.33104 | 36112 ft | 458 kts | 11° |
| 2026-05-04 18:48 | 44.51745 | 16.35212 | 36105 ft | 458 kts | 11° |
| 2026-05-04 18:48 | 44.57925 | 16.37338 | 36098 ft | 457 kts | 11° |
| 2026-05-04 18:49 | 44.64106 | 16.39469 | 36085 ft | 457 kts | 11° |
| 2026-05-04 18:49 | 44.70275 | 16.41602 | 36083 ft | 456 kts | 11° |
| 2026-05-04 18:50 | 44.75402 | 16.43377 | 36069 ft | 456 kts | 11° |
| 2026-05-04 18:50 | 44.82600 | 16.45875 | 36064 ft | 456 kts | 11° |
| 2026-05-04 18:51 | 44.88760 | 16.48018 | 36054 ft | 456 kts | 11° |
| 2026-05-04 18:51 | 44.94908 | 16.50162 | 36052 ft | 455 kts | 12° |
| 2026-05-04 18:52 | 45.01063 | 16.52312 | 36042 ft | 455 kts | 12° |
| 2026-05-04 18:52 | 45.07215 | 16.54466 | 36033 ft | 455 kts | 12° |
| 2026-05-04 18:53 | 45.13359 | 16.56623 | 36035 ft | 455 kts | 12° |
| 2026-05-04 18:53 | 45.19508 | 16.58786 | 36030 ft | 455 kts | 12° |
| 2026-05-04 18:54 | 45.25609 | 16.60937 | 36025 ft | 455 kts | 12° |
| 2026-05-04 18:54 | 45.31740 | 16.63103 | 36024 ft | 454 kts | 12° |
| 2026-05-04 18:55 | 45.37875 | 16.65276 | 36021 ft | 454 kts | 12° |
| 2026-05-04 18:55 | 45.47074 | 16.68542 | 36021 ft | 454 kts | 12° |
| 2026-05-04 18:56 | 45.53205 | 16.70726 | 36019 ft | 454 kts | 12° |
| 2026-05-04 18:56 | 45.59342 | 16.72916 | 36020 ft | 455 kts | 12° |
| 2026-05-04 18:57 | 45.65478 | 16.75111 | 36010 ft | 455 kts | 12° |
| 2026-05-04 18:57 | 45.71623 | 16.77314 | 36013 ft | 455 kts | 12° |
| 2026-05-04 18:58 | 45.77763 | 16.79520 | 36014 ft | 455 kts | 12° |
| 2026-05-04 18:58 | 45.83906 | 16.81732 | 36012 ft | 455 kts | 12° |
| 2026-05-04 18:59 | 45.90052 | 16.83951 | 36012 ft | 456 kts | 12° |
| 2026-05-04 18:59 | 45.96202 | 16.86176 | 36014 ft | 456 kts | 12° |
| 2026-05-04 19:00 | 46.02356 | 16.88408 | 36008 ft | 456 kts | 12° |
| 2026-05-04 19:00 | 46.08515 | 16.90647 | 36010 ft | 457 kts | 12° |
| 2026-05-04 19:01 | 46.14673 | 16.92891 | 36007 ft | 457 kts | 12° |
| 2026-05-04 19:01 | 46.20837 | 16.95142 | 36008 ft | 457 kts | 12° |
| 2026-05-04 19:02 | 46.27034 | 16.97157 | 36002 ft | 456 kts | 7° |
| 2026-05-04 19:02 | 46.33317 | 16.98268 | 36009 ft | 455 kts | 4° |
| 2026-05-04 19:03 | 46.38556 | 16.98986 | 36006 ft | 455 kts | 4° |
| 2026-05-04 19:03 | 46.44853 | 16.99941 | 36001 ft | 455 kts | 5° |
| 2026-05-04 19:04 | 46.51148 | 17.01005 | 36004 ft | 456 kts | 5° |
| 2026-05-04 19:04 | 46.57443 | 17.02112 | 35997 ft | 456 kts | 5° |
| 2026-05-04 19:05 | 46.63738 | 17.03225 | 35992 ft | 456 kts | 5° |
| 2026-05-04 19:05 | 46.70033 | 17.04335 | 35995 ft | 456 kts | 5° |
| 2026-05-04 19:06 | 46.76325 | 17.05444 | 35992 ft | 456 kts | 5° |
| 2026-05-04 19:06 | 46.82623 | 17.06557 | 35994 ft | 456 kts | 5° |
| 2026-05-04 19:07 | 46.88912 | 17.07671 | 35991 ft | 456 kts | 5° |
| 2026-05-04 19:07 | 46.95204 | 17.08788 | 36005 ft | 455 kts | 5° |
| 2026-05-04 19:08 | 47.01493 | 17.09907 | 35998 ft | 455 kts | 5° |
| 2026-05-04 19:08 | 47.07781 | 17.11028 | 35841 ft | 457 kts | 5° |
| 2026-05-04 19:09 | 47.10942 | 17.11593 | 35581 ft | 456 kts | 5° |
| 2026-05-04 19:09 | 47.14077 | 17.12154 | 35325 ft | 454 kts | 5° |
| 2026-05-04 19:09 | 47.17169 | 17.12709 | 35097 ft | 453 kts | 5° |
| 2026-05-04 19:09 | 47.20298 | 17.13270 | 35028 ft | 454 kts | 5° |
| 2026-05-04 19:10 | 47.26591 | 17.14400 | 34999 ft | 455 kts | 5° |
| 2026-05-04 19:10 | 47.32862 | 17.15530 | 34986 ft | 453 kts | 5° |
| 2026-05-04 19:11 | 47.39119 | 17.16659 | 34990 ft | 452 kts | 5° |
| 2026-05-04 19:11 | 47.45363 | 17.17789 | 34989 ft | 452 kts | 5° |
| 2026-05-04 19:12 | 47.54735 | 17.19489 | 34988 ft | 452 kts | 5° |
| 2026-05-04 19:13 | 47.60985 | 17.20627 | 34982 ft | 453 kts | 5° |
| 2026-05-04 19:13 | 47.67242 | 17.21769 | 34975 ft | 453 kts | 5° |
| 2026-05-04 19:14 | 47.73498 | 17.22913 | 34979 ft | 453 kts | 5° |
| 2026-05-04 19:14 | 47.79762 | 17.24062 | 34979 ft | 454 kts | 5° |
| 2026-05-04 19:15 | 47.86029 | 17.25214 | 34974 ft | 454 kts | 5° |
| 2026-05-04 19:15 | 47.92299 | 17.26369 | 34971 ft | 454 kts | 5° |
| 2026-05-04 19:16 | 47.98579 | 17.27529 | 34971 ft | 454 kts | 5° |
| 2026-05-04 19:16 | 48.04852 | 17.28691 | 34968 ft | 454 kts | 5° |
| 2026-05-04 19:17 | 48.11124 | 17.29855 | 34967 ft | 454 kts | 5° |
| 2026-05-04 19:17 | 48.17407 | 17.30708 | 34965 ft | 453 kts | 1° |
| 2026-05-04 19:18 | 48.23705 | 17.31243 | 34971 ft | 453 kts | 1° |
| 2026-05-04 19:18 | 48.29996 | 17.31776 | 34968 ft | 453 kts | 1° |
| 2026-05-04 19:19 | 48.36296 | 17.32362 | 34971 ft | 454 kts | 1° |
| 2026-05-04 19:19 | 48.42604 | 17.32977 | 34982 ft | 454 kts | 1° |
| 2026-05-04 19:20 | 48.48912 | 17.33598 | 34976 ft | 454 kts | 1° |
| 2026-05-04 19:20 | 48.55222 | 17.34220 | 34976 ft | 455 kts | 1° |
| 2026-05-04 19:21 | 48.61538 | 17.34841 | 34978 ft | 455 kts | 1° |